Time;durP1;ratioP1;P1;durP2;ratioP2;P2;SDS_P1;SDS_P2;PMS_P1;PMS_P2;Temp;Humidity;BMP_temperature;BMP_pressure;BME280_temperature;BME280_humidity;BME280_pressure;Samples;Min_cycle;Max_cycle;Signal;HPM_P1;HPM_P2
2023/07/29 00:01:33;;;;;;;;;;;;;;;18.08;71.93;99852.92;107992;1254;71551;-72
2023/07/29 00:04:01;;;;;;;;;;;;;;;18.07;72.13;99848.98;107969;1255;61221;-72
2023/07/29 00:06:28;;;;;;;;;;;;;;;18.06;72.25;99847.42;107962;1260;60612;-72
2023/07/29 00:08:55;;;;;;;;;;;;;;;18.04;72.38;99842.02;107908;1257;61288;-72
2023/07/29 00:11:22;;;;;;;;;;;;;;;18.03;72.46;99843.75;108112;1254;72849;-71
2023/07/29 00:13:50;;;;;;;;;;;;;;;18.05;72.74;99844.05;108133;1254;72668;-72
2023/07/29 00:16:17;;;;;;;;;;;;;;;18.08;72.66;99842.08;108030;1254;61836;-73
2023/07/29 00:18:44;;;;;;;;;;;;;;;18.10;72.88;99842.40;107923;1260;61234;-73
2023/07/29 00:21:11;;;;;;;;;;;;;;;18.13;72.86;99847.46;107994;1258;74579;-73
2023/07/29 00:23:38;;;;;;;;;;;;;;;18.14;72.97;99843.59;107952;1254;72455;-72
2023/07/29 00:26:04;;;;;;;;;;;;;;;18.18;73.05;99847.60;107961;1254;72708;-72
2023/07/29 00:28:31;;;;;;;;;;;;;;;18.24;73.15;99842.27;107955;1254;61718;-73
2023/07/29 00:30:59;;;;;;;;;;;;;;;18.29;72.97;99840.99;108058;1254;61112;-73
2023/07/29 00:33:26;;;;;;;;;;;;;;;18.35;72.91;99844.87;107995;1257;74687;-73
2023/07/29 00:35:56;;;;;;;;;;;;;;;18.41;72.80;99842.77;107804;1254;72826;-73
2023/07/29 00:38:23;;;;;;;;;;;;;;;18.44;72.61;99841.75;107902;1254;72395;-73
2023/07/29 00:40:49;;;;;;;;;;;;;;;18.47;72.62;99839.17;107963;1254;61142;-72
2023/07/29 00:43:16;;;;;;;;;;;;;;;18.51;72.43;99833.76;108100;1254;61342;-72
2023/07/29 00:45:43;;;;;;;;;;;;;;;18.54;72.42;99831.06;108091;1254;75018;-72
2023/07/29 00:48:11;;;;;;;;;;;;;;;18.56;72.01;99826.66;107892;1256;71780;-72
2023/07/29 00:50:40;;;;;;;;;;;;;;;18.59;71.67;99827.77;107879;1259;74404;-72
2023/07/29 00:53:07;;;;;;;;;;;;;;;18.60;71.33;99824.69;107901;1254;61740;-72
2023/07/29 00:55:34;;;;;;;;;;;;;;;18.63;70.99;99825.34;108166;1254;59479;-72
2023/07/29 00:58:01;;;;;;;;;;;;;;;18.65;70.03;99825.54;107878;1260;73743;-72
2023/07/29 01:00:28;;;;;;;;;;;;;;;18.68;69.14;99824.98;108007;1257;72080;-72
2023/07/29 01:02:55;;;;;;;;;;;;;;;18.71;68.18;99823.42;107935;1259;72641;-72
2023/07/29 01:05:22;;;;;;;;;;;;;;;18.75;67.61;99819.08;108066;1259;63477;-70
2023/07/29 01:07:49;;;;;;;;;;;;;;;18.79;67.08;99819.15;108003;1258;61166;-71
2023/07/29 01:10:16;;;;;;;;;;;;;;;18.83;66.52;99820.30;108049;1254;74550;-72
2023/07/29 01:12:51;;;;;;;;;;;;;;;18.88;66.28;99818.17;107926;1255;72944;-72
2023/07/29 01:15:23;;;;;;;;;;;;;;;18.95;65.94;99818.04;107925;1254;72460;-73
2023/07/29 01:17:51;;;;;;;;;;;;;;;18.99;65.73;99815.17;107965;1254;62008;-72
2023/07/29 01:20:20;;;;;;;;;;;;;;;19.02;65.38;99817.59;107962;1254;61148;-72
2023/07/29 01:22:47;;;;;;;;;;;;;;;19.05;65.35;99818.30;107763;1257;74576;-72
2023/07/29 01:25:14;;;;;;;;;;;;;;;19.07;65.22;99825.27;107643;1254;73816;-72
2023/07/29 01:27:44;;;;;;;;;;;;;;;19.08;65.15;99823.75;107868;1254;73874;-72
2023/07/29 01:30:12;;;;;;;;;;;;;;;19.09;65.36;99823.97;107967;1254;61907;-72
2023/07/29 01:32:54;;;;;;;;;;;;;;;19.11;65.28;99822.92;107746;1263;61256;-72
2023/07/29 01:35:27;;;;;;;;;;;;;;;19.12;65.21;99825.30;107867;1260;73387;-73
2023/07/29 01:37:56;;;;;;;;;;;;;;;19.12;65.25;99825.84;108010;1257;72848;-73
2023/07/29 01:40:23;;;;;;;;;;;;;;;19.11;65.36;99828.81;108212;1254;72743;-74
2023/07/29 01:42:51;;;;;;;;;;;;;;;19.12;65.38;99828.64;107959;1257;62966;-71
2023/07/29 01:45:18;;;;;;;;;;;;;;;19.12;65.35;99827.00;107849;1254;61147;-71
2023/07/29 01:47:45;;;;;;;;;;;;;;;19.14;65.55;99825.98;107669;1254;74405;-72
2023/07/29 01:50:14;;;;;;;;;;;;;;;19.15;65.45;99826.66;107910;1257;71289;-73
2023/07/29 01:52:41;;;;;;;;;;;;;;;19.15;65.42;99827.09;107975;1255;71971;-71
2023/07/29 01:55:07;;;;;;;;;;;;;;;19.15;65.57;99828.60;107895;1254;61135;-72
2023/07/29 01:57:34;;;;;;;;;;;;;;;19.16;65.41;99829.77;108036;1254;63296;-72
2023/07/29 02:00:02;;;;;;;;;;;;;;;19.16;65.31;99830.73;107792;1254;73791;-71
2023/07/29 02:02:29;;;;;;;;;;;;;;;19.16;65.30;99828.63;107901;1257;72216;-72
2023/07/29 02:04:57;;;;;;;;;;;;;;;19.18;65.15;99833.86;107813;1254;72725;-73
2023/07/29 02:07:26;;;;;;;;;;;;;;;19.18;65.29;99834.12;107903;1259;61209;-72
2023/07/29 02:09:53;;;;;;;;;;;;;;;19.19;65.18;99834.52;108013;1254;61534;-73
2023/07/29 02:12:20;;;;;;;;;;;;;;;19.19;65.14;99836.23;107829;1254;74499;-72
2023/07/29 02:14:47;;;;;;;;;;;;;;;19.20;65.07;99840.61;108041;1254;72940;-72
2023/07/29 02:17:13;;;;;;;;;;;;;;;19.23;65.25;99841.85;108080;1254;71692;-73
2023/07/29 02:19:41;;;;;;;;;;;;;;;18.91;66.12;99840.48;107894;1258;63095;-72
2023/07/29 02:22:08;;;;;;;;;;;;;;;18.82;66.84;99845.77;107995;1254;61232;-72
2023/07/29 02:24:34;;;;;;;;;;;;;;;19.03;66.57;99836.73;107800;1254;73668;-71
2023/07/29 02:27:01;;;;;;;;;;;;;;;19.24;66.10;99834.48;107965;1254;72599;-71
2023/07/29 02:29:29;;;;;;;;;;;;;;;19.28;65.86;99833.36;107890;1254;72786;-73
2023/07/29 02:31:56;;;;;;;;;;;;;;;19.01;66.19;99834.66;107941;1257;61931;-72
2023/07/29 02:34:22;;;;;;;;;;;;;;;18.80;66.87;99835.80;107920;1254;61218;-73
2023/07/29 02:36:49;;;;;;;;;;;;;;;18.77;67.23;99834.09;107829;1254;75547;-72
2023/07/29 02:39:16;;;;;;;;;;;;;;;18.78;67.41;99837.04;107894;1257;72857;-72
2023/07/29 02:41:43;;;;;;;;;;;;;;;18.79;67.68;99837.28;107838;1254;72862;-72
2023/07/29 02:44:10;;;;;;;;;;;;;;;18.79;67.93;99840.92;107942;1258;61688;-72
2023/07/29 02:46:37;;;;;;;;;;;;;;;18.79;68.03;99844.20;108027;1254;61554;-72
2023/07/29 02:49:04;;;;;;;;;;;;;;;18.80;68.19;99846.48;108030;1254;73883;-72
2023/07/29 02:51:31;;;;;;;;;;;;;;;18.82;68.24;99847.94;107773;1254;72748;-72
2023/07/29 02:53:58;;;;;;;;;;;;;;;18.82;68.23;99846.92;107916;1254;73157;-71
2023/07/29 02:56:25;;;;;;;;;;;;;;;18.83;68.30;99847.83;108108;1254;63639;-73
2023/07/29 02:58:52;;;;;;;;;;;;;;;18.84;68.25;99847.62;107834;1254;61158;-72
2023/07/29 03:01:19;;;;;;;;;;;;;;;18.84;68.11;99850.23;107799;1260;74602;-72
2023/07/29 03:03:45;;;;;;;;;;;;;;;18.84;68.12;99851.19;107946;1254;71474;-72
2023/07/29 03:06:13;;;;;;;;;;;;;;;18.96;68.07;99853.27;107984;1254;71265;-73
2023/07/29 03:08:40;;;;;;;;;;;;;;;19.29;67.04;99848.80;107794;1254;61629;-74
2023/07/29 03:11:08;;;;;;;;;;;;;;;19.37;66.46;99849.23;108060;1254;61139;-73
2023/07/29 03:13:37;;;;;;;;;;;;;;;19.39;66.14;99846.07;107826;1254;75686;-72
2023/07/29 03:16:07;;;;;;;;;;;;;;;19.39;65.82;99841.82;107890;1257;71357;-73
2023/07/29 03:18:35;;;;;;;;;;;;;;;19.40;65.70;99843.30;107847;1260;72553;-72
2023/07/29 03:21:02;;;;;;;;;;;;;;;19.42;65.46;99845.34;107975;1254;61019;-71
2023/07/29 03:23:30;;;;;;;;;;;;;;;19.43;65.27;99846.84;108049;1254;61109;-72
2023/07/29 03:25:58;;;;;;;;;;;;;;;19.44;65.22;99846.41;107844;1256;74468;-72
2023/07/29 03:28:27;;;;;;;;;;;;;;;19.45;64.93;99847.59;107974;1254;71059;-72
2023/07/29 03:30:54;;;;;;;;;;;;;;;19.45;65.07;99852.31;107768;1257;72412;-72
2023/07/29 03:33:21;;;;;;;;;;;;;;;19.45;65.22;99856.87;108009;1255;61116;-72
2023/07/29 03:35:48;;;;;;;;;;;;;;;19.48;65.16;99862.29;107880;1254;61160;-72
2023/07/29 03:38:15;;;;;;;;;;;;;;;19.51;65.14;99862.39;107981;1257;73375;-72
2023/07/29 03:40:42;;;;;;;;;;;;;;;19.52;65.02;99856.64;107943;1254;72526;-72
2023/07/29 03:43:09;;;;;;;;;;;;;;;19.52;64.97;99856.33;107958;1257;72596;-72
2023/07/29 03:45:36;;;;;;;;;;;;;;;19.50;64.91;99856.27;107896;1254;62051;-72
2023/07/29 03:48:04;;;;;;;;;;;;;;;19.49;64.83;99852.84;107792;1254;61186;-72
2023/07/29 03:50:31;;;;;;;;;;;;;;;19.51;64.94;99853.75;108012;1254;74630;-71
2023/07/29 03:52:57;;;;;;;;;;;;;;;19.52;64.94;99851.08;107948;1254;72724;-71
2023/07/29 03:55:24;;;;;;;;;;;;;;;19.53;65.02;99850.17;108051;1254;72679;-73
2023/07/29 03:57:52;;;;;;;;;;;;;;;19.53;64.97;99851.66;107940;1256;62031;-72
2023/07/29 04:00:18;;;;;;;;;;;;;;;19.50;65.08;99852.25;107759;1254;61144;-72
2023/07/29 04:02:47;;;;;;;;;;;;;;;19.48;65.13;99856.27;107835;1260;74500;-73
2023/07/29 04:05:14;;;;;;;;;;;;;;;19.50;65.40;99856.79;107996;1254;73594;-72
2023/07/29 04:07:41;;;;;;;;;;;;;;;19.56;65.51;99857.95;108032;1256;72934;-72
2023/07/29 04:10:08;;;;;;;;;;;;;;;19.65;65.64;99861.36;107904;1256;61574;-72
2023/07/29 04:12:35;;;;;;;;;;;;;;;19.76;65.54;99862.23;107823;1257;61155;-73
2023/07/29 04:15:02;;;;;;;;;;;;;;;19.86;65.24;99861.80;107812;1254;74678;-72
2023/07/29 04:17:29;;;;;;;;;;;;;;;19.97;64.37;99856.64;107824;1257;73158;-72
2023/07/29 04:19:56;;;;;;;;;;;;;;;20.08;64.36;99857.40;107871;1254;74059;-72
2023/07/29 04:22:27;;;;;;;;;;;;;;;20.26;64.14;99860.84;107788;1257;61882;-71
2023/07/29 04:24:53;;;;;;;;;;;;;;;20.36;63.31;99859.73;108014;1254;61167;-72
2023/07/29 04:27:20;;;;;;;;;;;;;;;20.41;63.13;99859.16;108066;1259;73671;-73
2023/07/29 04:29:47;;;;;;;;;;;;;;;20.45;62.94;99854.55;107929;1254;72453;-73
2023/07/29 04:32:14;;;;;;;;;;;;;;;20.45;62.79;99856.64;108020;1254;72749;-73
2023/07/29 04:34:42;;;;;;;;;;;;;;;20.44;62.75;99861.64;107987;1254;61737;-73
2023/07/29 04:37:09;;;;;;;;;;;;;;;20.41;62.81;99865.44;107845;1254;61214;-73
2023/07/29 04:39:36;;;;;;;;;;;;;;;20.39;62.99;99862.81;107818;1255;76049;-73
2023/07/29 04:42:03;;;;;;;;;;;;;;;20.37;63.19;99869.05;107823;1260;71571;-73
2023/07/29 04:44:30;;;;;;;;;;;;;;;20.37;63.26;99871.04;107710;1254;72690;-72
2023/07/29 04:46:56;;;;;;;;;;;;;;;20.34;63.27;99870.34;108044;1254;61563;-72
2023/07/29 04:49:23;;;;;;;;;;;;;;;20.30;63.33;99872.69;107996;1256;60944;-72
2023/07/29 04:51:50;;;;;;;;;;;;;;;20.30;63.61;99872.00;108018;1256;75770;-72
2023/07/29 04:54:17;;;;;;;;;;;;;;;20.33;63.73;99873.48;108155;1254;72619;-72
2023/07/29 04:56:43;;;;;;;;;;;;;;;20.36;63.63;99873.05;107805;1256;72566;-72
2023/07/29 04:59:12;;;;;;;;;;;;;;;20.44;63.53;99870.16;107935;1254;61924;-72
2023/07/29 05:01:39;;;;;;;;;;;;;;;20.49;63.65;99871.59;108025;1254;61234;-72
2023/07/29 05:04:06;;;;;;;;;;;;;;;20.64;63.60;99871.77;108043;1254;74646;-73
2023/07/29 05:06:33;;;;;;;;;;;;;;;20.77;63.40;99869.13;108026;1254;72651;-72
2023/07/29 05:09:15;;;;;;;;;;;;;;;20.89;63.22;99867.38;107876;1254;72810;-73
2023/07/29 05:11:45;;;;;;;;;;;;;;;21.02;62.43;99870.33;107886;1254;61738;-73
2023/07/29 05:14:16;;;;;;;;;;;;;;;21.18;62.01;99867.06;107925;1254;60463;-73
2023/07/29 05:16:43;;;;;;;;;;;;;;;21.34;61.80;99860.61;107937;1256;73514;-72
2023/07/29 05:19:10;;;;;;;;;;;;;;;21.52;61.14;99863.38;108018;1254;72747;-72
2023/07/29 05:21:37;;;;;;;;;;;;;;;21.59;60.12;99866.65;107967;1254;72647;-72
2023/07/29 05:24:04;;;;;;;;;;;;;;;21.55;60.23;99857.77;107738;1255;60512;-72
2023/07/29 05:26:32;;;;;;;;;;;;;;;21.59;60.35;99859.59;107868;1256;61140;-72
2023/07/29 05:28:59;;;;;;;;;;;;;;;21.64;60.51;99860.12;108097;1256;74017;-73
2023/07/29 05:31:26;;;;;;;;;;;;;;;21.68;60.14;99861.52;108009;1258;73000;-72
2023/07/29 05:33:53;;;;;;;;;;;;;;;21.69;60.38;99862.17;107951;1254;72810;-72
2023/07/29 05:36:20;;;;;;;;;;;;;;;21.68;60.37;99858.73;107823;1254;61246;-72
2023/07/29 05:38:47;;;;;;;;;;;;;;;21.64;60.46;99855.39;108014;1254;61148;-72
2023/07/29 05:41:14;;;;;;;;;;;;;;;21.60;60.42;99856.30;107762;1254;76081;-72
2023/07/29 05:43:43;;;;;;;;;;;;;;;21.59;60.21;99858.43;107924;1254;72511;-72
2023/07/29 05:46:10;;;;;;;;;;;;;;;21.64;60.12;99864.15;108105;1257;73623;-73
2023/07/29 05:48:37;;;;;;;;;;;;;;;21.71;59.62;99868.90;107979;1254;61266;-74
2023/07/29 05:51:05;;;;;;;;;;;;;;;21.80;59.80;99868.06;107810;1254;60196;-71
2023/07/29 05:53:33;;;;;;;;;;;;;;;21.92;59.54;99870.54;108105;1254;74631;-72
2023/07/29 05:56:00;;;;;;;;;;;;;;;22.04;59.41;99870.23;108129;1254;73962;-73
2023/07/29 05:58:27;;;;;;;;;;;;;;;22.15;58.65;99864.21;107794;1257;72628;-73
2023/07/29 06:00:54;;;;;;;;;;;;;;;22.22;58.17;99866.88;108018;1254;61458;-72
2023/07/29 06:03:21;;;;;;;;;;;;;;;22.23;57.52;99864.73;107833;1254;60765;-72
2023/07/29 06:05:50;;;;;;;;;;;;;;;22.21;57.80;99865.30;108005;1254;74632;-72
2023/07/29 06:08:21;;;;;;;;;;;;;;;22.17;57.65;99865.61;107998;1258;73822;-71
2023/07/29 06:10:48;;;;;;;;;;;;;;;22.16;57.93;99864.78;108002;1254;71323;-72
2023/07/29 06:13:15;;;;;;;;;;;;;;;22.27;57.81;99862.35;108009;1254;62167;-73
2023/07/29 06:15:42;;;;;;;;;;;;;;;22.39;57.92;99868.45;108029;1256;61320;-72
2023/07/29 06:18:09;;;;;;;;;;;;;;;22.52;57.52;99864.55;107944;1254;73636;-72
2023/07/29 06:20:36;;;;;;;;;;;;;;;22.57;56.65;99863.02;107715;1254;72802;-72
2023/07/29 06:23:02;;;;;;;;;;;;;;;22.63;56.52;99863.64;107714;1257;70794;-72
2023/07/29 06:25:29;;;;;;;;;;;;;;;22.67;56.57;99862.09;107800;1256;61115;-72
2023/07/29 06:27:58;;;;;;;;;;;;;;;22.72;56.36;99860.72;107977;1258;61106;-72
2023/07/29 06:30:25;;;;;;;;;;;;;;;22.78;55.74;99860.07;107984;1255;74038;-72
2023/07/29 06:32:51;;;;;;;;;;;;;;;22.87;55.56;99858.63;107941;1254;72592;-72
2023/07/29 06:35:18;;;;;;;;;;;;;;;22.96;55.12;99861.17;107913;1254;72376;-72
2023/07/29 06:37:45;;;;;;;;;;;;;;;23.03;54.81;99863.59;107895;1257;61144;-71
2023/07/29 06:40:12;;;;;;;;;;;;;;;23.12;54.90;99861.04;107658;1254;61146;-71
2023/07/29 06:42:39;;;;;;;;;;;;;;;23.25;54.82;99865.27;107943;1254;75106;-71
2023/07/29 06:45:11;;;;;;;;;;;;;;;23.39;54.64;99859.25;107984;1255;72767;-71
2023/07/29 06:47:38;;;;;;;;;;;;;;;23.54;54.19;99852.83;107889;1254;70849;-71
2023/07/29 06:50:05;;;;;;;;;;;;;;;23.65;53.52;99851.32;107798;1254;60730;-71
2023/07/29 06:52:32;;;;;;;;;;;;;;;23.71;53.60;99846.92;107885;1254;61138;-71
2023/07/29 06:54:58;;;;;;;;;;;;;;;23.75;53.25;99842.33;107805;1254;74208;-71
2023/07/29 06:57:25;;;;;;;;;;;;;;;23.70;52.69;99844.94;107859;1254;74407;-71
2023/07/29 06:59:52;;;;;;;;;;;;;;;23.60;52.81;99839.77;107880;1254;72727;-72
2023/07/29 07:02:18;;;;;;;;;;;;;;;23.58;53.40;99840.58;107823;1257;60363;-73
2023/07/29 07:04:45;;;;;;;;;;;;;;;23.60;53.47;99850.91;107766;1254;61400;-73
2023/07/29 07:07:12;;;;;;;;;;;;;;;23.62;53.62;99848.45;107840;1255;74724;-73
2023/07/29 07:09:39;;;;;;;;;;;;;;;23.56;53.85;99847.64;107955;1254;71454;-72
2023/07/29 07:12:06;;;;;;;;;;;;;;;23.52;54.09;99848.25;107861;1254;72632;-73
2023/07/29 07:14:33;;;;;;;;;;;;;;;23.54;53.93;99851.50;107830;1254;61429;-71
2023/07/29 07:17:00;;;;;;;;;;;;;;;23.55;53.88;99855.89;107932;1256;60187;-73
2023/07/29 07:19:27;;;;;;;;;;;;;;;23.59;53.94;99854.48;107892;1254;73841;-74
2023/07/29 07:21:54;;;;;;;;;;;;;;;23.64;53.51;99850.36;108613;1254;72878;-71
2023/07/29 07:24:20;;;;;;;;;;;;;;;23.74;54.05;99852.90;107852;1254;73823;-73
2023/07/29 07:26:47;;;;;;;;;;;;;;;23.82;53.74;99849.16;107989;1254;61618;-73
2023/07/29 07:29:14;;;;;;;;;;;;;;;23.91;53.30;99854.75;107822;1254;61144;-76
2023/07/29 07:31:41;;;;;;;;;;;;;;;24.02;52.80;99849.02;107760;1254;74904;-72
2023/07/29 07:34:08;;;;;;;;;;;;;;;24.13;52.89;99853.17;107757;1254;72820;-71
2023/07/29 07:36:35;;;;;;;;;;;;;;;24.16;52.73;99850.70;107767;1254;72592;-75
2023/07/29 07:39:02;;;;;;;;;;;;;;;24.16;52.86;99854.61;77754;1257;10002850;-75
2023/07/29 07:41:29;;;;;;;;;;;;;;;24.19;52.70;99851.15;108805;1258;60275;-76
2023/07/29 07:43:55;;;;;;;;;;;;;;;24.22;52.62;99850.33;108523;1259;59934;-75
2023/07/29 07:46:22;;;;;;;;;;;;;;;24.26;52.43;99844.86;107486;1257;72820;-75
2023/07/29 07:48:49;;;;;;;;;;;;;;;24.31;52.73;99848.60;107557;1260;71213;-75
2023/07/29 07:51:16;;;;;;;;;;;;;;;24.38;53.15;99844.27;107588;1257;61276;-75
2023/07/29 07:53:43;;;;;;;;;;;;;;;24.46;52.41;99841.69;108092;1259;61238;-75
2023/07/29 07:56:10;;;;;;;;;;;;;;;24.49;52.25;99840.64;107615;1260;75691;-75
2023/07/29 07:58:37;;;;;;;;;;;;;;;24.57;52.60;99838.73;108077;1257;72612;-75
2023/07/29 08:01:05;;;;;;;;;;;;;;;24.69;51.80;99836.45;107711;1258;72842;-76
2023/07/29 08:03:32;;;;;;;;;;;;;;;24.75;51.64;99838.97;107986;1256;60116;-76
2023/07/29 08:05:59;;;;;;;;;;;;;;;24.85;51.56;99832.55;107548;1257;61423;-76
2023/07/29 08:08:26;;;;;;;;;;;;;;;24.96;51.52;99833.23;107630;1257;75283;-76
2023/07/29 08:10:57;;;;;;;;;;;;;;;25.11;51.66;99835.77;107749;1258;74252;-77
2023/07/29 08:13:24;;;;;;;;;;;;;;;25.30;51.14;99837.86;107870;1254;72634;-76
2023/07/29 08:15:51;;;;;;;;;;;;;;;25.34;50.41;99844.00;107763;1254;61681;-77
2023/07/29 08:18:19;;;;;;;;;;;;;;;25.26;50.18;99845.39;108702;1254;61240;-76
2023/07/29 08:20:55;;;;;;;;;;;;;;;25.22;50.53;99839.81;107847;1256;74351;-76
2023/07/29 08:23:22;;;;;;;;;;;;;;;25.27;50.32;99839.45;109023;1254;71197;-76
2023/07/29 08:26:02;;;;;;;;;;;;;;;25.31;50.97;99838.80;108355;1256;72721;-76
2023/07/29 08:28:30;;;;;;;;;;;;;;;25.40;50.43;99845.33;108245;1254;61277;-76
2023/07/29 08:30:57;;;;;;;;;;;;;;;25.38;49.92;99839.76;107871;1254;61131;-77
2023/07/29 08:33:26;;;;;;;;;;;;;;;25.35;50.04;99839.41;108307;1254;74702;-76
2023/07/29 08:35:52;;;;;;;;;;;;;;;25.35;49.79;99843.55;107797;1254;72536;-76
2023/07/29 08:38:19;;;;;;;;;;;;;;;25.44;50.29;99837.31;107655;1254;73022;-76
2023/07/29 08:40:54;;;;;;;;;;;;;;;25.60;49.74;99833.48;107739;1254;62207;-78
2023/07/29 08:43:21;;;;;;;;;;;;;;;25.60;49.52;99827.39;108519;1254;59567;-75
2023/07/29 08:45:48;;;;;;;;;;;;;;;25.57;49.56;99830.16;107755;1254;75597;-76
2023/07/29 08:48:16;;;;;;;;;;;;;;;25.57;49.82;99832.44;107761;1254;72789;-76
2023/07/29 08:50:43;;;;;;;;;;;;;;;25.59;49.61;99830.98;107796;1254;72646;-77
2023/07/29 08:53:09;;;;;;;;;;;;;;;25.63;50.04;99829.60;107573;1256;61339;-75
2023/07/29 08:55:36;;;;;;;;;;;;;;;25.67;50.44;99825.04;107781;1256;61199;-76
2023/07/29 08:58:05;;;;;;;;;;;;;;;25.78;50.22;99823.96;107647;1254;72377;-76
2023/07/29 09:00:32;;;;;;;;;;;;;;;25.90;50.25;99821.04;107645;1257;72600;-79
2023/07/29 09:03:04;;;;;;;;;;;;;;;26.08;49.80;99822.44;107562;1254;72750;-79
2023/07/29 09:05:32;;;;;;;;;;;;;;;26.22;49.24;99822.14;107821;1254;61513;-79
2023/07/29 09:07:59;;;;;;;;;;;;;;;26.28;48.70;99820.86;107992;1255;61157;-77
2023/07/29 09:10:26;;;;;;;;;;;;;;;26.26;47.83;99818.34;108676;1254;74829;-76
2023/07/29 09:12:53;;;;;;;;;;;;;;;26.24;48.00;99819.42;108085;1254;74386;-77
2023/07/29 09:15:26;;;;;;;;;;;;;;;26.32;48.51;99816.27;107944;1254;72447;-77
2023/07/29 09:17:53;;;;;;;;;;;;;;;26.38;48.26;99811.30;108147;1255;63854;-77
2023/07/29 09:20:27;;;;;;;;;;;;;;;26.44;48.51;99810.48;107999;1256;61183;-77
2023/07/29 09:22:55;;;;;;;;;;;;;;;26.56;48.08;99809.08;107940;1258;74511;-77
2023/07/29 09:25:25;;;;;;;;;;;;;;;26.66;48.30;99807.73;107937;1254;71406;-76
2023/07/29 09:27:52;;;;;;;;;;;;;;;26.67;47.62;99807.41;107994;1254;72681;-77
2023/07/29 09:30:22;;;;;;;;;;;;;;;26.72;47.81;99805.95;108019;1254;61335;-77
2023/07/29 09:32:52;;;;;;;;;;;;;;;26.91;47.89;99806.89;107860;1254;61143;-77
2023/07/29 09:35:19;;;;;;;;;;;;;;;27.05;47.14;99806.00;107828;1256;74644;-76
2023/07/29 09:37:47;;;;;;;;;;;;;;;27.15;46.48;99804.11;107979;1256;73163;-76
2023/07/29 09:40:15;;;;;;;;;;;;;;;27.19;46.41;99799.48;108020;1254;72158;-77
2023/07/29 09:42:47;;;;;;;;;;;;;;;27.17;45.54;99806.45;107966;1254;61122;-76
2023/07/29 09:45:18;;;;;;;;;;;;;;;26.96;46.19;99806.29;108207;1258;61116;-76
2023/07/29 09:47:46;;;;;;;;;;;;;;;26.73;46.97;99809.48;107860;1254;75729;-74
2023/07/29 09:50:13;;;;;;;;;;;;;;;26.55;47.03;99802.35;108081;1254;72947;-73
2023/07/29 09:52:39;;;;;;;;;;;;;;;26.53;47.22;99802.58;108079;1254;72762;-75
2023/07/29 09:55:07;;;;;;;;;;;;;;;26.63;47.70;99802.54;107949;1254;61237;-73
2023/07/29 09:57:38;;;;;;;;;;;;;;;26.76;47.82;99800.80;108087;1254;61325;-77
2023/07/29 10:00:10;;;;;;;;;;;;;;;26.96;47.79;99792.73;107947;1258;74670;-77
2023/07/29 10:02:41;;;;;;;;;;;;;;;27.15;46.85;99796.49;107898;1254;72297;-77
2023/07/29 10:05:08;;;;;;;;;;;;;;;27.24;46.14;99800.98;107850;1254;71378;-77
2023/07/29 10:07:38;;;;;;;;;;;;;;;27.13;45.37;99798.45;107883;1254;61035;-78
2023/07/29 10:10:06;;;;;;;;;;;;;;;26.95;45.67;99799.23;107890;1254;60822;-77
2023/07/29 10:12:34;;;;;;;;;;;;;;;26.75;46.37;99801.42;107987;1254;73303;-76
2023/07/29 10:15:04;;;;;;;;;;;;;;;26.63;47.18;99798.55;107948;1254;72549;-76
2023/07/29 10:17:36;;;;;;;;;;;;;;;26.65;47.81;99793.39;107893;1254;72415;-75
2023/07/29 10:20:06;;;;;;;;;;;;;;;26.81;47.93;99794.48;108012;1254;61132;-76
2023/07/29 10:22:38;;;;;;;;;;;;;;;26.99;47.10;99793.59;107892;1256;61145;-73
2023/07/29 10:25:07;;;;;;;;;;;;;;;27.09;46.85;99790.35;107893;1257;73238;-73
2023/07/29 10:27:46;;;;;;;;;;;;;;;27.15;46.36;99784.68;108754;1254;72704;-73
2023/07/29 10:30:13;;;;;;;;;;;;;;;27.12;45.45;99786.70;108155;1254;65274;-73
2023/07/29 10:32:44;;;;;;;;;;;;;;;27.05;46.34;99790.66;107912;1254;61223;-73
2023/07/29 10:35:11;;;;;;;;;;;;;;;27.02;44.28;99787.75;108058;1254;61021;-73
2023/07/29 10:37:38;;;;;;;;;;;;;;;27.08;45.26;99789.57;108099;1256;67305;-73
2023/07/29 10:40:06;;;;;;;;;;;;;;;27.25;45.33;99788.70;107945;1254;73879;-73
2023/07/29 10:42:33;;;;;;;;;;;;;;;27.39;44.59;99790.52;108034;1254;63953;-73
2023/07/29 10:44:59;;;;;;;;;;;;;;;27.50;43.70;99794.14;107992;1254;61149;-74
2023/07/29 10:47:27;;;;;;;;;;;;;;;27.54;44.35;99788.19;108121;1254;61302;-73
2023/07/29 10:49:55;;;;;;;;;;;;;;;27.65;44.42;99787.58;107989;1256;65993;-73
2023/07/29 10:52:34;;;;;;;;;;;;;;;27.81;44.33;99782.89;108087;1258;65084;-73
2023/07/29 10:55:01;;;;;;;;;;;;;;;27.98;43.95;99778.73;108035;1254;74351;-74
2023/07/29 10:57:35;;;;;;;;;;;;;;;28.11;44.25;99789.08;107917;1254;61240;-74
2023/07/29 11:00:03;;;;;;;;;;;;;;;28.18;44.37;99793.05;107872;1254;61205;-74
2023/07/29 11:02:33;;;;;;;;;;;;;;;28.15;43.94;99789.77;108091;1257;65908;-75
2023/07/29 11:05:00;;;;;;;;;;;;;;;28.06;43.75;99790.25;108010;1256;64383;-74
2023/07/29 11:07:27;;;;;;;;;;;;;;;27.93;43.01;99784.46;108002;1254;72721;-74
2023/07/29 11:09:56;;;;;;;;;;;;;;;27.88;42.96;99782.19;108083;1254;61207;-73
2023/07/29 11:12:33;;;;;;;;;;;;;;;27.83;43.81;99786.04;108118;1254;61083;-74
2023/07/29 11:15:20;;;;;;;;;;;;;;;27.86;44.04;99782.11;108011;1258;66252;-74
2023/07/29 11:17:48;;;;;;;;;;;;;;;27.98;44.51;99778.80;107984;1254;74037;-72
2023/07/29 11:20:16;;;;;;;;;;;;;;;28.08;43.75;99778.41;107984;1254;64909;-73
2023/07/29 11:22:43;;;;;;;;;;;;;;;28.12;43.78;99779.17;108048;1254;61456;-73
2023/07/29 11:25:11;;;;;;;;;;;;;;;28.04;43.70;99780.68;107955;1256;60440;-74
2023/07/29 11:27:38;;;;;;;;;;;;;;;27.95;44.09;99770.73;108054;1254;73710;-74
2023/07/29 11:30:15;;;;;;;;;;;;;;;27.92;44.37;99770.27;107998;1257;64438;-74
2023/07/29 11:32:43;;;;;;;;;;;;;;;27.87;44.22;99769.33;107880;1254;237793;-74
2023/07/29 11:35:14;;;;;;;;;;;;;;;27.77;44.61;99768.22;107954;1254;61461;-73
2023/07/29 11:37:42;;;;;;;;;;;;;;;27.70;45.23;99764.84;107980;1255;61099;-74
2023/07/29 11:40:10;;;;;;;;;;;;;;;27.71;45.22;99762.33;107944;1254;74449;-74
2023/07/29 11:42:37;;;;;;;;;;;;;;;27.76;44.92;99763.21;107863;1258;64150;-74
2023/07/29 11:45:09;;;;;;;;;;;;;;;27.85;44.95;99764.86;108083;1255;72680;-74
2023/07/29 11:47:37;;;;;;;;;;;;;;;27.95;44.91;99763.69;107979;1259;61236;-74
2023/07/29 11:50:04;;;;;;;;;;;;;;;28.06;44.38;99760.91;108044;1255;61238;-74
2023/07/29 11:52:32;;;;;;;;;;;;;;;28.16;43.70;99768.20;108056;1254;66113;-73
2023/07/29 11:55:00;;;;;;;;;;;;;;;28.29;43.71;99773.49;108017;1257;64174;-73
2023/07/29 11:57:26;;;;;;;;;;;;;;;28.46;43.52;99774.66;107985;1255;64502;-74
2023/07/29 11:59:53;;;;;;;;;;;;;;;28.54;42.62;99775.11;107958;1256;61214;-73
2023/07/29 12:02:20;;;;;;;;;;;;;;;28.52;42.12;99767.34;108062;1259;61094;-73
2023/07/29 12:04:47;;;;;;;;;;;;;;;28.55;42.36;99768.12;108056;1254;65889;-73
2023/07/29 12:07:14;;;;;;;;;;;;;;;28.54;41.77;99771.42;107951;1257;65388;-73
2023/07/29 12:09:41;;;;;;;;;;;;;;;28.47;41.50;99770.27;108124;1254;65048;-74
2023/07/29 12:12:08;;;;;;;;;;;;;;;28.40;42.10;99770.84;107980;1257;61339;-73
2023/07/29 12:14:35;;;;;;;;;;;;;;;28.41;42.42;99762.50;108052;1256;61211;-73
2023/07/29 12:17:02;;;;;;;;;;;;;;;28.45;42.65;99767.05;107998;1257;67070;-74
2023/07/29 12:19:36;;;;;;;;;;;;;;;28.43;42.80;99770.75;107964;1257;64109;-73
2023/07/29 12:22:03;;;;;;;;;;;;;;;28.36;43.14;99772.93;107986;1254;63942;-74
2023/07/29 12:24:30;;;;;;;;;;;;;;;28.31;43.45;99772.02;107998;1254;63073;-73
2023/07/29 12:26:57;;;;;;;;;;;;;;;28.28;43.44;99774.77;107876;1257;61157;-73
2023/07/29 12:29:24;;;;;;;;;;;;;;;28.26;43.79;99774.99;107918;1256;74501;-73
2023/07/29 12:32:17;;;;;;;;;;;;;;;28.24;43.42;99778.63;107917;1257;64079;-73
2023/07/29 12:34:44;;;;;;;;;;;;;;;28.27;43.63;99779.79;107726;1254;62679;-74
2023/07/29 12:37:11;;;;;;;;;;;;;;;28.35;43.05;99766.35;86441;1255;10002225;-78
2023/07/29 12:39:40;;;;;;;;;;;;;;;28.47;42.26;99764.53;107995;1257;61243;-77